Wisconsin Dells, WI

03:41 AM CDT on Oktober 21, 2014 (GMT -0500)
Baraboo Wisconsin Dells | Change Station
CLOSE
Current Station
Airport
Location: Baraboo,
Elevation: 978 ft
Nearby Weather Stations

Elev 978 ft 43.52 °N, 89.77 °W | Updated 26 minutes ago

Toe getrek
Toe getrek
47 °F
Feels Like 47 °F
N
6
Wind Veranderlik Wind from NNO

Vandag
High -- | Low -- °F
--% Chance of Precip.
Yesterday
High -- | Low -- °F
Precip. -- in
7:20 AM 6:05 PM
Waning Crescent, 6% visible
Druk 30.09 in
Sigbaarheid 10.0 myle
Wolke Toe getrek 3800 ft
Dou-punt 38 °F
Humiditeit 70%
Rainfall 0.00 in
Snow Depth Not available.
UV 0 out of 12
Pollen 1.80 out of 12
Air Quality Not available.
Flu Activity Sporadic
METAR KDLL 210815Z AUTO 02005KT 10SM OVC038 08/03 A3009 RMK AO2 T00840032

More Conditions Fewer Conditions

Druk 30.09 in
Sigbaarheid 10.0 myle
Wolke Toe getrek 3800 ft
Dou-punt 38 °F
Humiditeit 70%
Rainfall 0.00 in
Snow Depth Not available.
UV 0 out of 12
Pollen 1.80 out of 12
Air Quality Not available.
Flu Activity Sporadic
METAR KDLL 210815Z AUTO 02005KT 10SM OVC038 08/03 A3009 RMK AO2 T00840032

More Conditions Fewer Conditions

10-Day Weather Forecast

Almanac

Astronomy

Oct. 21, 2014 Rise Set
Ware Tyd 7:20 AM CDT 6:05 PM CDT
Civil Twilight 6:51 AM CDT 6:34 PM CDT
Nautical Twilight 6:18 AM CDT 7:08 PM CDT
Astronomical Twilight 5:44 AM CDT 7:41 PM CDT
Maan 5:00 AM CDT 5:03 PM CDT
Length Of Visible Light 11h 43m
Length of Day
10h 44m
Tomorrow will be 2m 50s shorter.
Waning Crescent, 6% of the Moon is Illuminated
Vandag
Waning Crescent
Oct 23
New
Oct 30
Eerste Kwartier
Nov 6
Vol Maan
Nov 14
Laaste kwarter

Today's Extremes

State Highs State Lows

Community

WunderPhotos

Upload Photos

1,763,619 photos uploaded!

Nearby

Snow Depth

Station Depth Elevation
No new snow has been reported.

Earthquake Activity

Stad Distance Mag. Time & Date
No recent earthquake activity has been reported nearby.
Minimum magnitude displayed is 2.5.

Coastal Water Temperatures

Plek Temperatuur
No Stations Reporting

Nearby Weather Stations